createdAt,value
2016-03-26T00:00:02.686Z,5.51
2016-03-26T00:01:02.673Z,5.42
2016-03-26T00:02:02.644Z,5.39
2016-03-26T00:03:02.631Z,5.39
2016-03-26T00:04:02.617Z,5.37
2016-03-26T00:05:02.621Z,5.36
2016-03-26T00:06:02.592Z,5.3
2016-03-26T00:07:02.626Z,5.27
2016-03-26T00:08:02.567Z,5.32
2016-03-26T00:09:02.538Z,5.27
2016-03-26T00:10:02.525Z,5.27
2016-03-26T00:11:02.512Z,5.24
2016-03-26T00:12:02.483Z,5.18
2016-03-26T00:13:02.471Z,5.18
2016-03-26T00:14:02.458Z,5.16
2016-03-26T00:15:02.444Z,5.15
2016-03-26T00:16:02.447Z,5.18
2016-03-26T00:17:02.419Z,5.11
2016-03-26T00:18:02.390Z,5.09
2016-03-26T00:19:02.362Z,5.09
2016-03-26T00:20:02.349Z,5.09
2016-03-26T00:21:02.335Z,5.04
2016-03-26T00:22:02.323Z,5.07
2016-03-26T00:23:02.325Z,4.99
2016-03-26T00:24:02.296Z,5.01
2016-03-26T00:25:02.284Z,5.07
2016-03-26T00:26:02.256Z,4.91
2016-03-26T00:27:02.243Z,4.93
2016-03-26T00:28:02.214Z,4.93
2016-03-26T00:29:02.201Z,4.89
2016-03-26T00:30:02.187Z,4.9
2016-03-26T00:31:02.175Z,4.94
2016-03-26T00:32:02.162Z,4.9
2016-03-26T00:33:02.133Z,4.8
2016-03-26T00:34:02.136Z,4.78
2016-03-26T00:35:02.108Z,4.82
2016-03-26T00:36:02.111Z,4.82
2016-03-26T00:37:02.066Z,4.89
2016-03-26T00:38:02.054Z,4.78
2016-03-26T00:39:02.041Z,4.78
2016-03-26T00:40:02.027Z,4.71
2016-03-26T00:41:01.999Z,4.75
2016-03-26T00:42:01.974Z,4.66
2016-03-26T00:43:02.008Z,4.71
2016-03-26T00:44:01.948Z,4.66
2016-03-26T00:45:01.779Z,4.6
2016-03-26T00:46:01.907Z,4.59
2016-03-26T00:47:01.894Z,4.52
2016-03-26T00:48:01.897Z,4.5
2016-03-26T00:49:01.853Z,4.42
2016-03-26T00:50:01.855Z,4.48
2016-03-26T00:51:01.827Z,4.45
2016-03-26T00:52:01.813Z,4.45
2016-03-26T00:53:01.801Z,4.45
2016-03-26T00:54:01.788Z,4.41
2016-03-26T00:55:01.759Z,4.42
2016-03-26T00:56:01.746Z,4.44
2016-03-26T00:57:01.921Z,4.27
2016-03-26T00:58:01.721Z,4.27
2016-03-26T00:59:01.692Z,4.28
2016-03-26T01:00:01.679Z,4.24
2016-03-26T01:01:01.666Z,4.2
2016-03-26T01:02:01.638Z,4.17
2016-03-26T01:03:01.625Z,4.14
2016-03-26T01:04:01.612Z,4.18
2016-03-26T01:05:01.614Z,4.06
2016-03-26T01:06:01.570Z,4.16
2016-03-26T01:07:01.558Z,4.17
2016-03-26T01:08:01.544Z,4.08
2016-03-26T01:09:01.516Z,4.08
2016-03-26T01:10:01.504Z,4.2
2016-03-26T01:11:01.490Z,4.13
2016-03-26T01:12:01.416Z,4
2016-03-26T01:13:01.450Z,4
2016-03-26T01:14:01.436Z,3.9
2016-03-26T01:15:01.424Z,3.88
2016-03-26T01:16:01.411Z,3.88
2016-03-26T01:17:01.382Z,3.87
2016-03-26T01:18:01.384Z,3.77
2016-03-26T01:19:01.340Z,3.78
2016-03-26T01:20:01.343Z,3.77
2016-03-26T01:21:01.315Z,3.8
2016-03-26T01:22:01.301Z,3.69
2016-03-26T01:23:01.273Z,3.62
2016-03-26T01:24:01.276Z,3.72
2016-03-26T01:25:01.247Z,3.57
2016-03-26T01:26:01.234Z,3.62
2016-03-26T01:27:01.831Z,3.69
2016-03-26T01:28:01.192Z,3.64
2016-03-26T01:29:01.180Z,3.64
2016-03-26T01:30:01.167Z,3.64
2016-03-26T01:31:01.139Z,3.55
2016-03-26T01:32:01.126Z,3.52
2016-03-26T01:33:01.096Z,3.51
2016-03-26T01:34:01.100Z,3.52
2016-03-26T01:35:01.071Z,3.51
2016-03-26T01:36:01.058Z,3.57
2016-03-26T01:37:01.029Z,3.52
2016-03-26T01:38:01.016Z,3.49
2016-03-26T01:39:01.003Z,3.51
2016-03-26T01:40:00.974Z,3.51
2016-03-26T01:41:00.963Z,3.48
2016-03-26T01:42:00.949Z,3.45
2016-03-26T01:43:00.921Z,3.42
2016-03-26T01:44:00.752Z,3.37
2016-03-26T01:45:00.895Z,3.42
2016-03-26T01:46:00.866Z,3.32
2016-03-26T01:47:00.853Z,3.44
2016-03-26T01:48:00.840Z,3.32
2016-03-26T01:49:00.812Z,3.29
2016-03-26T01:50:00.815Z,3.32
2016-03-26T01:51:00.785Z,3.29
2016-03-26T01:52:00.773Z,3.3
2016-03-26T01:53:00.745Z,3.35
2016-03-26T01:54:00.731Z,3.3
2016-03-26T01:55:00.718Z,3.32
2016-03-26T01:56:00.706Z,3.35
2016-03-26T01:57:00.708Z,3.3
2016-03-26T01:58:00.664Z,3.29
2016-03-26T01:59:00.650Z,3.3
2016-03-26T02:00:00.619Z,3.26
2016-03-26T02:01:00.606Z,3.32
2016-03-26T02:02:00.595Z,3.26
2016-03-26T02:03:00.565Z,3.3
2016-03-26T02:04:00.912Z,3.29
2016-03-26T02:05:00.540Z,3.3
2016-03-26T02:06:00.511Z,3.25
2016-03-26T02:07:00.530Z,3.32
2016-03-26T02:08:00.516Z,3.37
2016-03-26T02:09:00.456Z,3.26
2016-03-26T02:10:00.475Z,3.25
2016-03-26T02:11:00.430Z,3.12
2016-03-26T02:12:00.433Z,3.23
2016-03-26T02:13:00.389Z,3.25
2016-03-26T02:14:00.377Z,3.22
2016-03-26T02:15:00.347Z,3.19
2016-03-26T02:16:00.350Z,3.2
2016-03-26T02:17:00.322Z,3.19
2016-03-26T02:18:00.310Z,3.11
2016-03-26T02:19:00.280Z,3.08
2016-03-26T02:20:00.268Z,3.08
2016-03-26T02:21:00.238Z,3.04
2016-03-26T02:22:00.241Z,3.04
2016-03-26T02:23:00.213Z,3
2016-03-26T02:24:00.200Z,3.04
2016-03-26T02:25:00.171Z,3.04
2016-03-26T02:26:00.158Z,3.01
2016-03-26T02:27:00.129Z,2.93
2016-03-26T02:28:00.117Z,2.96
2016-03-26T02:29:00.104Z,2.84
2016-03-26T02:30:00.076Z,2.9
2016-03-26T02:31:00.063Z,2.9
2016-03-26T02:32:00.050Z,2.87
2016-03-26T02:33:00.037Z,2.83
2016-03-26T02:34:00.008Z,2.87
2016-03-26T02:35:00.026Z,2.9
2016-03-26T02:35:59.982Z,2.91
2016-03-26T02:36:59.969Z,2.83
2016-03-26T02:37:59.941Z,2.9
2016-03-26T02:38:59.990Z,2.9
2016-03-26T02:39:59.900Z,2.87
2016-03-26T02:40:59.902Z,2.94
2016-03-26T02:41:59.874Z,2.89
2016-03-26T02:42:59.844Z,2.91
2016-03-26T02:43:59.832Z,2.94
2016-03-26T02:44:59.819Z,2.89
2016-03-26T02:45:59.806Z,2.79
2016-03-26T02:46:59.777Z,2.87
2016-03-26T02:47:59.765Z,2.9
2016-03-26T02:48:59.752Z,2.89
2016-03-26T02:49:59.723Z,2.83
2016-03-26T02:50:59.726Z,2.73
2016-03-26T02:51:59.681Z,2.78
2016-03-26T02:52:59.669Z,2.83
2016-03-26T02:53:59.656Z,2.84
2016-03-26T02:54:59.627Z,2.71
2016-03-26T02:55:59.615Z,2.58
2016-03-26T02:56:59.585Z,2.55
2016-03-26T02:57:59.573Z,2.58
2016-03-26T02:58:59.576Z,2.69
2016-03-26T02:59:59.547Z,2.54
2016-03-26T03:00:59.534Z,2.6
2016-03-26T03:01:59.506Z,2.42
2016-03-26T03:02:59.493Z,2.48
2016-03-26T03:03:59.464Z,2.48
2016-03-26T03:04:59.451Z,2.4
2016-03-26T03:05:59.439Z,2.26
2016-03-26T03:06:59.253Z,2.29
2016-03-26T03:07:59.397Z,2.36
2016-03-26T03:08:59.368Z,2.36
2016-03-26T03:09:59.355Z,2.33
2016-03-26T03:10:59.358Z,2.32
2016-03-26T03:11:59.329Z,2.25
2016-03-26T03:12:59.333Z,2.15
2016-03-26T03:13:59.303Z,2.18
2016-03-26T03:14:59.290Z,2.18
2016-03-26T03:15:59.246Z,2.12
2016-03-26T03:16:59.264Z,2.07
2016-03-26T03:17:59.236Z,2.09
2016-03-26T03:18:59.191Z,2.09
2016-03-26T03:19:59.179Z,2.15
2016-03-26T03:20:59.166Z,2.18
2016-03-26T03:21:59.152Z,2.19
2016-03-26T03:22:59.124Z,2.18
2016-03-26T03:23:59.112Z,2.22
2016-03-26T03:24:59.082Z,2.21
2016-03-26T03:25:59.054Z,2.21
2016-03-26T03:26:59.057Z,2.18
2016-03-26T03:27:59.028Z,2.19
2016-03-26T03:28:59.015Z,2.26
2016-03-26T03:29:58.987Z,2.29
2016-03-26T03:30:58.974Z,2.28
2016-03-26T03:31:58.961Z,2.18
2016-03-26T03:32:58.932Z,2.26
2016-03-26T03:33:58.919Z,2.26
2016-03-26T03:34:58.892Z,2.14
2016-03-26T03:35:58.879Z,2.04
2016-03-26T03:36:58.865Z,1.97
2016-03-26T03:37:58.837Z,2.03
2016-03-26T03:38:58.824Z,1.99
2016-03-26T03:39:58.795Z,2.04
2016-03-26T03:40:58.783Z,1.97
2016-03-26T03:41:58.770Z,2.01
2016-03-26T03:42:58.742Z,1.99
2016-03-26T03:43:58.744Z,1.93
2016-03-26T03:44:58.715Z,1.95
2016-03-26T03:45:58.702Z,1.93
2016-03-26T03:46:58.674Z,1.92
2016-03-26T03:47:58.660Z,1.9
2016-03-26T03:48:58.647Z,1.95
2016-03-26T03:49:58.635Z,2.01
2016-03-26T03:50:58.606Z,1.85
2016-03-26T03:51:58.577Z,1.99
2016-03-26T03:52:58.565Z,1.92
2016-03-26T03:53:58.583Z,1.99
2016-03-26T03:54:58.538Z,2
2016-03-26T03:55:58.526Z,1.99
2016-03-26T03:56:58.482Z,1.92
2016-03-26T03:57:58.468Z,1.99
2016-03-26T03:58:58.457Z,1.99
2016-03-26T03:59:58.427Z,1.92
2016-03-26T04:00:58.429Z,1.89
2016-03-26T04:01:58.386Z,1.88
2016-03-26T04:02:58.373Z,1.95
2016-03-26T04:03:58.500Z,1.88
2016-03-26T04:04:58.331Z,2.01
2016-03-26T04:05:58.334Z,2.01
2016-03-26T04:06:58.305Z,2
2016-03-26T04:07:58.309Z,1.92
2016-03-26T04:08:58.264Z,1.93
2016-03-26T04:09:58.250Z,1.97
2016-03-26T04:10:58.223Z,1.92
2016-03-26T04:11:58.209Z,1.85
2016-03-26T04:12:58.180Z,1.81
2016-03-26T04:13:58.168Z,1.85
2016-03-26T04:14:58.155Z,1.9
2016-03-26T04:15:58.127Z,1.84
2016-03-26T04:16:58.114Z,1.92
2016-03-26T04:17:58.085Z,1.78
2016-03-26T04:18:58.072Z,1.93
2016-03-26T04:19:58.091Z,1.84
2016-03-26T04:20:58.030Z,1.92
2016-03-26T04:21:58.033Z,1.92
2016-03-26T04:22:58.004Z,1.85
2016-03-26T04:23:57.992Z,2.04
2016-03-26T04:24:57.963Z,1.89
2016-03-26T04:25:57.982Z,1.92
2016-03-26T04:26:57.921Z,1.78
2016-03-26T04:27:57.909Z,1.78
2016-03-26T04:28:57.880Z,1.81
2016-03-26T04:29:57.867Z,1.74
2016-03-26T04:30:57.854Z,1.7
2016-03-26T04:31:57.857Z,1.66
2016-03-26T04:32:57.813Z,1.74
2016-03-26T04:33:57.800Z,1.77
2016-03-26T04:34:57.615Z,1.85
2016-03-26T04:35:57.774Z,1.77
2016-03-26T04:36:57.729Z,1.78
2016-03-26T04:37:57.717Z,1.68
2016-03-26T04:38:57.689Z,1.64
2016-03-26T04:39:57.675Z,1.64
2016-03-26T04:40:57.663Z,1.56
2016-03-26T04:41:57.634Z,1.54
2016-03-26T04:42:57.620Z,1.5
2016-03-26T04:43:57.592Z,1.42
2016-03-26T04:44:57.595Z,1.57
2016-03-26T04:45:57.554Z,1.35
2016-03-26T04:46:57.558Z,1.44
2016-03-26T04:47:57.529Z,1.52
2016-03-26T04:48:57.515Z,1.45
2016-03-26T04:49:57.504Z,1.44
2016-03-26T04:50:57.506Z,1.54
2016-03-26T04:51:57.461Z,1.54
2016-03-26T04:52:57.434Z,1.5
2016-03-26T04:53:57.436Z,1.56
2016-03-26T04:54:57.392Z,1.45
2016-03-26T04:55:57.394Z,1.54
2016-03-26T04:56:57.350Z,1.62
2016-03-26T04:57:57.352Z,1.53
2016-03-26T04:58:57.325Z,1.52
2016-03-26T04:59:57.311Z,1.52
2016-03-26T05:00:57.282Z,1.48
2016-03-26T05:01:57.286Z,1.5
2016-03-26T05:02:57.241Z,1.53
2016-03-26T05:03:57.244Z,1.46
2016-03-26T05:04:57.200Z,1.54
2016-03-26T05:05:57.186Z,1.45
2016-03-26T05:06:57.174Z,1.71
2016-03-26T05:07:57.145Z,1.71
2016-03-26T05:08:57.147Z,1.81
2016-03-26T05:09:57.104Z,1.81
2016-03-26T05:10:57.091Z,1.78
2016-03-26T05:11:57.063Z,1.82
2016-03-26T05:12:57.174Z,1.78
2016-03-26T05:13:57.036Z,1.77
2016-03-26T05:14:57.008Z,1.72
2016-03-26T05:15:56.995Z,1.64
2016-03-26T05:16:56.965Z,1.68
2016-03-26T05:17:57.000Z,1.74
2016-03-26T05:18:56.940Z,1.81
2016-03-26T05:19:56.912Z,1.93
2016-03-26T05:20:56.899Z,1.88
2016-03-26T05:21:56.886Z,1.97
2016-03-26T05:22:56.857Z,1.84
2016-03-26T05:23:56.845Z,1.8
2016-03-26T05:24:56.815Z,1.88
2016-03-26T05:25:56.803Z,1.8
2016-03-26T05:26:56.790Z,1.75
2016-03-26T05:27:56.823Z,1.66
2016-03-26T05:28:56.749Z,1.62
2016-03-26T05:29:56.736Z,1.62
2016-03-26T05:30:56.722Z,1.62
2016-03-26T05:31:56.695Z,1.59
2016-03-26T05:32:56.697Z,1.52
2016-03-26T05:33:56.699Z,1.56
2016-03-26T05:34:56.639Z,1.56
2016-03-26T05:35:56.627Z,1.59
2016-03-26T05:36:56.597Z,1.62
2016-03-26T05:37:56.586Z,1.57
2016-03-26T05:38:56.572Z,1.6
2016-03-26T05:39:56.544Z,1.7
2016-03-26T05:40:56.531Z,1.74
2016-03-26T05:41:56.518Z,1.71
2016-03-26T05:42:56.567Z,1.78
2016-03-26T05:43:56.461Z,1.9
2016-03-26T05:44:56.448Z,1.93
2016-03-26T05:45:56.419Z,2.03
2016-03-26T05:46:56.266Z,1.97
2016-03-26T05:47:56.393Z,2.08
2016-03-26T05:48:56.365Z,2.04
2016-03-26T05:49:56.352Z,2.08
2016-03-26T05:50:56.339Z,2.25
2016-03-26T05:51:56.326Z,2.29
2016-03-26T05:52:56.418Z,2.42
2016-03-26T05:53:56.350Z,2.5
2016-03-26T05:54:56.293Z,2.69
2016-03-26T05:55:56.249Z,2.76
2016-03-26T05:56:57.492Z,2.94
2016-03-26T05:57:56.152Z,2.93
2016-03-26T05:58:56.186Z,3
2016-03-26T05:59:56.156Z,3.08
2016-03-26T06:00:56.144Z,3.26
2016-03-26T06:01:56.116Z,3.3
2016-03-26T06:02:56.103Z,3.37
2016-03-26T06:03:56.089Z,3.35
2016-03-26T06:04:56.077Z,3.49
2016-03-26T06:05:56.059Z,3.52
2016-03-26T06:06:56.037Z,3.8
2016-03-26T06:07:56.003Z,4.02
2016-03-26T06:08:55.967Z,4.18
2016-03-26T06:09:55.945Z,4.27
2016-03-26T06:10:55.928Z,4.28
2016-03-26T06:11:55.912Z,4.41
2016-03-26T06:12:55.895Z,4.7
2016-03-26T06:13:55.864Z,5.04
2016-03-26T06:14:55.848Z,5.34
2016-03-26T06:15:55.833Z,5.5
2016-03-26T06:16:55.818Z,5.66
2016-03-26T06:17:55.836Z,5.84
2016-03-26T06:18:55.791Z,6.13
2016-03-26T06:19:55.777Z,6.45
2016-03-26T06:20:55.764Z,6.42
2016-03-26T06:21:55.766Z,6.3
2016-03-26T06:22:55.752Z,6.42
2016-03-26T06:23:55.723Z,6.55
2016-03-26T06:24:55.709Z,6.88
2016-03-26T06:25:55.697Z,7.27
2016-03-26T06:26:55.684Z,7.6
2016-03-26T06:27:55.671Z,7.97
2016-03-26T06:28:55.659Z,8.16
2016-03-26T06:29:55.661Z,8.46
2016-03-26T06:30:55.632Z,8.6
2016-03-26T06:31:55.620Z,8.91
2016-03-26T06:32:55.606Z,8.96
2016-03-26T06:33:55.593Z,8.88
2016-03-26T06:34:55.580Z,8.78
2016-03-26T06:35:55.583Z,9.04
2016-03-26T06:36:55.570Z,9.33
2016-03-26T06:37:55.557Z,9.81
2016-03-26T06:38:55.544Z,10.2
2016-03-26T06:39:55.531Z,10.56
2016-03-26T06:40:55.534Z,10.61
2016-03-26T06:41:55.505Z,10.42
2016-03-26T06:42:55.336Z,10.01
2016-03-26T06:43:55.495Z,9.86
2016-03-26T06:44:55.483Z,10.12
2016-03-26T06:45:55.469Z,10.12
2016-03-26T06:46:55.471Z,10.38
2016-03-26T06:47:55.460Z,10.51
2016-03-26T06:48:55.446Z,10.53
2016-03-26T06:49:55.448Z,10.37
2016-03-26T06:50:55.437Z,10.45
2016-03-26T06:51:55.423Z,10.63
2016-03-26T06:52:55.410Z,10.93
2016-03-26T06:53:55.412Z,11.07
2016-03-26T06:54:55.400Z,11.34
2016-03-26T06:55:55.403Z,11.88
2016-03-26T06:56:55.389Z,12.14
2016-03-26T06:57:55.392Z,12.46
2016-03-26T06:58:55.394Z,12.43
2016-03-26T06:59:55.382Z,12.72
2016-03-26T07:00:55.369Z,12.98
2016-03-26T07:01:55.372Z,13.1
2016-03-26T07:02:55.375Z,13.56
2016-03-26T07:03:55.361Z,13.54
2016-03-26T07:04:55.349Z,13.49
2016-03-26T07:05:55.352Z,13.64
2016-03-26T07:06:55.322Z,13.86
2016-03-26T07:07:55.325Z,14.25
2016-03-26T07:08:55.328Z,14.26
2016-03-26T07:09:55.331Z,14.5
2016-03-26T07:10:55.318Z,14.39
2016-03-26T07:11:55.320Z,14.62
2016-03-26T07:12:55.324Z,15.01
2016-03-26T07:13:55.310Z,15.14
2016-03-26T07:14:55.312Z,15.46
2016-03-26T07:15:55.316Z,15.49
2016-03-26T07:16:55.302Z,15.59
2016-03-26T07:17:55.305Z,15.57
2016-03-26T07:18:55.293Z,15.71
2016-03-26T07:19:55.295Z,16.15
2016-03-26T07:20:55.298Z,16.53
2016-03-26T07:21:55.301Z,16.69
2016-03-26T07:22:55.303Z,16.31
2016-03-26T07:23:55.275Z,16.24
2016-03-26T07:24:55.278Z,15.98
2016-03-26T07:25:55.281Z,15.67
2016-03-26T07:26:55.283Z,15.69
2016-03-26T07:27:55.285Z,15.62
2016-03-26T07:28:55.273Z,15.79
2016-03-26T07:29:55.275Z,15.92
2016-03-26T07:30:55.277Z,15.55
2016-03-26T07:31:55.265Z,15.55
2016-03-26T07:32:55.267Z,15.8
2016-03-26T07:33:55.270Z,15.75
2016-03-26T07:34:55.273Z,15.68
2016-03-26T07:35:55.260Z,15.99
2016-03-26T07:36:55.278Z,15.87
2016-03-26T07:37:55.266Z,16.04
2016-03-26T07:38:55.268Z,15.44
2016-03-26T07:39:55.255Z,15.17
2016-03-26T07:40:55.258Z,15.46
2016-03-26T07:41:55.261Z,15.62
2016-03-26T07:42:55.247Z,15.77
2016-03-26T07:43:55.250Z,15.79
2016-03-26T07:44:55.238Z,15.67
2016-03-26T07:45:55.240Z,15.91
2016-03-26T07:46:55.242Z,16.25
2016-03-26T07:47:55.230Z,16.23
2016-03-26T07:48:55.232Z,16.01
2016-03-26T07:49:55.235Z,15.37
2016-03-26T07:50:55.238Z,15.31
2016-03-26T07:51:55.240Z,15.76
2016-03-26T07:52:55.228Z,16.04
2016-03-26T07:53:55.246Z,16.27
2016-03-26T07:54:55.233Z,16.32
2016-03-26T07:55:55.220Z,16.17
2016-03-26T07:56:55.223Z,16.53
2016-03-26T07:57:55.226Z,16.53
2016-03-26T07:58:55.229Z,16.17
2016-03-26T07:59:55.247Z,16.16
2016-03-26T08:00:55.218Z,16.04
2016-03-26T08:01:55.220Z,16.05
2016-03-26T08:02:55.222Z,16.35
2016-03-26T08:03:55.226Z,16.64
2016-03-26T08:04:55.213Z,16.69
2016-03-26T08:05:55.200Z,16.76
2016-03-26T08:06:55.203Z,16.89
2016-03-26T08:07:55.205Z,16.96
2016-03-26T08:08:55.208Z,16.97
2016-03-26T08:09:55.227Z,16.86
2016-03-26T08:10:55.197Z,17.08
2016-03-26T08:11:55.200Z,16.96
2016-03-26T08:12:55.203Z,17.01
2016-03-26T08:13:55.190Z,16.9
2016-03-26T08:14:55.193Z,17.29
2016-03-26T08:15:55.196Z,17.27
2016-03-26T08:16:55.199Z,16.94
2016-03-26T08:17:55.201Z,17
2016-03-26T08:18:55.187Z,16.87
2016-03-26T08:19:55.176Z,16.86
2016-03-26T08:20:55.178Z,16.93
2016-03-26T08:21:55.181Z,16.86
2016-03-26T08:22:55.184Z,17.01
2016-03-26T08:23:55.186Z,16.61
2016-03-26T08:24:55.189Z,16.71
2016-03-26T08:25:55.176Z,16.94
2016-03-26T08:26:55.179Z,17.08
2016-03-26T08:27:55.181Z,17.15
2016-03-26T08:28:55.184Z,17.11
2016-03-26T08:29:55.171Z,17.3
2016-03-26T08:30:55.173Z,17.21
2016-03-26T08:31:55.176Z,17.7
2016-03-26T08:32:55.179Z,18.14
2016-03-26T08:33:55.166Z,18.12
2016-03-26T08:34:55.169Z,18.55
2016-03-26T08:35:55.155Z,18.5
2016-03-26T08:36:55.159Z,18.41
2016-03-26T08:37:55.161Z,18.38
2016-03-26T08:38:55.163Z,18.08
2016-03-26T08:39:55.151Z,17.95
2016-03-26T08:40:55.142Z,18.1
2016-03-26T08:41:55.145Z,18.12
2016-03-26T08:42:55.148Z,18.11
2016-03-26T08:43:55.150Z,18.51
2016-03-26T08:44:55.153Z,18.9
2016-03-26T08:45:55.155Z,19.07
2016-03-26T08:46:55.142Z,19.07
2016-03-26T08:47:55.145Z,19.14
2016-03-26T08:48:55.147Z,19.43
2016-03-26T08:49:55.151Z,19.66
2016-03-26T08:50:55.137Z,19.62
2016-03-26T08:51:55.140Z,19
2016-03-26T08:52:55.142Z,19.16
2016-03-26T08:53:55.130Z,19.14
2016-03-26T08:54:55.148Z,19.04
2016-03-26T08:55:55.150Z,19
2016-03-26T08:56:55.139Z,18.8
2016-03-26T08:57:55.141Z,19.09
2016-03-26T08:58:55.144Z,19.29
2016-03-26T08:59:55.131Z,19.18
2016-03-26T09:00:55.133Z,19.49
2016-03-26T09:01:55.135Z,19.52
2016-03-26T09:02:55.138Z,19.55
2016-03-26T09:03:55.141Z,19.56
2016-03-26T09:04:55.129Z,19.81
2016-03-26T09:05:55.131Z,20.22
2016-03-26T09:06:55.134Z,20.36
2016-03-26T09:07:55.136Z,20.43
2016-03-26T09:08:55.124Z,20.72
2016-03-26T09:09:55.126Z,21.07
2016-03-26T09:10:55.129Z,21.18
2016-03-26T09:11:55.132Z,21
2016-03-26T09:12:55.134Z,20.42
2016-03-26T09:13:55.137Z,19.91
2016-03-26T09:14:55.123Z,19.71
2016-03-26T09:15:55.126Z,19.7
2016-03-26T09:16:55.129Z,20.28
2016-03-26T09:17:55.132Z,20.1
2016-03-26T09:18:55.119Z,19.27
2016-03-26T09:19:55.122Z,19.16
2016-03-26T09:20:55.125Z,19.3
2016-03-26T09:21:55.127Z,19.76
2016-03-26T09:22:55.130Z,19.25
2016-03-26T09:23:55.133Z,19.15
2016-03-26T09:24:55.135Z,19.19
2016-03-26T09:25:55.122Z,19.37
2016-03-26T09:26:55.141Z,19.31
2016-03-26T09:27:55.127Z,19.52
2016-03-26T09:28:55.130Z,19.64
2016-03-26T09:29:55.133Z,19.41
2016-03-26T09:30:55.119Z,19.59
2016-03-26T09:31:55.122Z,19.44
2016-03-26T09:32:55.125Z,18.99
2016-03-26T09:33:55.128Z,18.96
2016-03-26T09:34:55.130Z,19.39
2016-03-26T09:35:55.118Z,19.58
2016-03-26T09:36:55.121Z,19.84
2016-03-26T09:37:55.123Z,20.14
2016-03-26T09:38:55.126Z,20.62
2016-03-26T09:39:55.113Z,20.14
2016-03-26T09:40:55.115Z,19.79
2016-03-26T09:41:55.118Z,19.81
2016-03-26T09:42:55.121Z,19.79
2016-03-26T09:43:55.108Z,19.69
2016-03-26T09:44:55.126Z,19.61
2016-03-26T09:45:55.113Z,20.04
2016-03-26T09:46:55.100Z,20.32
2016-03-26T09:47:55.119Z,20.54
2016-03-26T09:48:55.105Z,20.59
2016-03-26T09:49:55.108Z,20.69
2016-03-26T09:50:55.111Z,20.77
2016-03-26T09:51:55.114Z,20.81
2016-03-26T09:52:55.100Z,20.77
2016-03-26T09:53:55.103Z,20.82
2016-03-26T09:54:55.091Z,20.75
2016-03-26T09:55:55.094Z,20.43
2016-03-26T09:56:55.096Z,20.6
2016-03-26T09:57:55.099Z,20.67
2016-03-26T09:58:55.102Z,20.21
2016-03-26T09:59:55.104Z,20.6
2016-03-26T10:00:55.107Z,20.6
2016-03-26T10:01:55.094Z,20.31
2016-03-26T10:02:55.096Z,19.54
2016-03-26T10:03:55.100Z,19.22
2016-03-26T10:04:55.102Z,19.49
2016-03-26T10:05:55.104Z,19.77
2016-03-26T10:06:55.107Z,19.76
2016-03-26T10:07:55.094Z,19.67
2016-03-26T10:08:55.082Z,19.4
2016-03-26T10:09:55.099Z,19.41
2016-03-26T10:10:55.087Z,19.4
2016-03-26T10:11:55.089Z,19.62
2016-03-26T10:12:55.093Z,19.61
2016-03-26T10:13:55.142Z,19.73
2016-03-26T10:14:55.082Z,19.49
2016-03-26T10:15:55.085Z,19.54
2016-03-26T10:16:55.088Z,19.84
2016-03-26T10:17:55.090Z,20.24
2016-03-26T10:18:55.092Z,20.34
2016-03-26T10:19:55.095Z,19.79
2016-03-26T10:20:55.129Z,19.61
2016-03-26T10:21:55.086Z,19.25
2016-03-26T10:22:55.088Z,19.27
2016-03-26T10:23:55.091Z,19.52
2016-03-26T10:24:55.094Z,19.58
2016-03-26T10:25:55.080Z,19.92
2016-03-26T10:26:55.083Z,19.58
2016-03-26T10:27:55.086Z,19.09
2016-03-26T10:28:55.120Z,19.07
2016-03-26T10:29:55.060Z,19.36
2016-03-26T10:30:55.078Z,19.7
2016-03-26T10:31:55.065Z,19.7
2016-03-26T10:32:55.068Z,19.74
2016-03-26T10:33:55.071Z,19.74
2016-03-26T10:34:55.074Z,19.62
2016-03-26T10:35:55.060Z,19.61
2016-03-26T10:36:55.063Z,19.74
2016-03-26T10:37:54.941Z,19.77
2016-03-26T10:38:55.052Z,20.1
2016-03-26T10:39:55.071Z,20.55
2016-03-26T10:40:55.058Z,20.96
2016-03-26T10:41:55.082Z,21
2016-03-26T10:42:55.068Z,21.2
2016-03-26T10:43:55.071Z,20.92
2016-03-26T10:44:55.058Z,20.57
2016-03-26T10:45:55.061Z,20.42
2016-03-26T10:46:55.048Z,20.81
2016-03-26T10:47:55.067Z,21.22
2016-03-26T10:48:55.053Z,21.35
2016-03-26T10:49:55.056Z,20.54
2016-03-26T10:50:55.058Z,19.71
2016-03-26T10:51:55.046Z,20.26
2016-03-26T10:52:55.064Z,20.73
2016-03-26T10:53:55.051Z,21.07
2016-03-26T10:54:55.069Z,20.51
2016-03-26T10:55:55.041Z,20.59
2016-03-26T10:56:55.044Z,20.69
2016-03-26T10:57:55.062Z,20.87
2016-03-26T10:58:54.924Z,21.3
2016-03-26T10:59:55.036Z,21.65
2016-03-26T11:00:55.038Z,21.91
2016-03-26T11:01:55.041Z,21.77
2016-03-26T11:02:55.044Z,21.73
2016-03-26T11:03:55.031Z,21.67
2016-03-26T11:04:55.034Z,21.86
2016-03-26T11:05:55.037Z,21.8
2016-03-26T11:06:55.040Z,21.35
2016-03-26T11:07:55.026Z,21.37
2016-03-26T11:08:55.029Z,21.43
2016-03-26T11:09:55.032Z,21.61
2016-03-26T11:10:55.035Z,21.85
2016-03-26T11:11:55.037Z,22.11
2016-03-26T11:12:55.024Z,21.93
2016-03-26T11:13:55.058Z,21.73
2016-03-26T11:14:55.029Z,21.93
2016-03-26T11:15:55.032Z,22.44
2016-03-26T11:16:55.020Z,22.46
2016-03-26T11:17:55.022Z,22.21
2016-03-26T11:18:55.025Z,21.99
2016-03-26T11:19:55.028Z,21.64
2016-03-26T11:20:55.030Z,20.81
2016-03-26T11:21:55.017Z,21.22
2016-03-26T11:22:55.036Z,21.79
2016-03-26T11:23:55.022Z,22.02
2016-03-26T11:24:55.025Z,21.75
2016-03-26T11:25:55.028Z,21.18
2016-03-26T11:26:55.014Z,21.37
2016-03-26T11:27:55.017Z,21.79
2016-03-26T11:28:55.020Z,21.83
2016-03-26T11:29:55.023Z,22.24
2016-03-26T11:30:55.025Z,22.68
2016-03-26T11:31:55.013Z,22.91
2016-03-26T11:32:55.015Z,22.95
2016-03-26T11:33:55.018Z,23.34
2016-03-26T11:34:55.021Z,23.39
2016-03-26T11:35:55.024Z,23.5
2016-03-26T11:36:55.010Z,23.74
2016-03-26T11:37:55.029Z,23.35
2016-03-26T11:38:55.000Z,23.35
2016-03-26T11:39:55.019Z,23.46
2016-03-26T11:40:55.006Z,23.47
2016-03-26T11:41:55.009Z,23.51
2016-03-26T11:42:55.011Z,23.5
2016-03-26T11:43:54.857Z,23.64
2016-03-26T11:44:55.016Z,23.27
2016-03-26T11:45:55.020Z,22.47
2016-03-26T11:46:55.022Z,22.21
2016-03-26T11:47:55.009Z,22.81
2016-03-26T11:48:55.011Z,23.12
2016-03-26T11:49:55.015Z,23.41
2016-03-26T11:50:55.017Z,23.27
2016-03-26T11:51:55.004Z,22.79
2016-03-26T11:52:55.022Z,23.2
2016-03-26T11:53:55.025Z,23.34
2016-03-26T11:54:55.011Z,23.76
2016-03-26T11:55:55.015Z,23.72
2016-03-26T11:56:55.017Z,23.66
2016-03-26T11:57:55.020Z,23.51
2016-03-26T11:58:55.007Z,23.49
2016-03-26T11:59:55.011Z,23.28
2016-03-26T12:00:55.013Z,23.39
2016-03-26T12:01:55.016Z,23.47
2016-03-26T12:02:55.002Z,23.71
2016-03-26T12:03:55.021Z,23.15
2016-03-26T12:04:55.007Z,21.95
2016-03-26T12:05:55.010Z,22.21
2016-03-26T12:06:55.013Z,21.89
2016-03-26T12:07:55.016Z,21.79
2016-03-26T12:08:55.002Z,21.79
2016-03-26T12:09:55.005Z,21.57
2016-03-26T12:10:55.008Z,21.77
2016-03-26T12:11:55.011Z,21.99
2016-03-26T12:12:55.013Z,22.35
2016-03-26T12:13:55.000Z,22.62
2016-03-26T12:14:55.003Z,22.99
2016-03-26T12:15:55.006Z,22.81
2016-03-26T12:16:55.009Z,22.55
2016-03-26T12:17:55.012Z,22.51
2016-03-26T12:18:55.014Z,22.66
2016-03-26T12:19:55.017Z,22.83
2016-03-26T12:20:55.020Z,22.95
2016-03-26T12:21:55.007Z,23.25
2016-03-26T12:22:55.009Z,23.34
2016-03-26T12:23:54.997Z,23.05
2016-03-26T12:24:54.999Z,23.09
2016-03-26T12:25:55.002Z,22.4
2016-03-26T12:26:55.004Z,22.68
2016-03-26T12:27:55.008Z,22.85
2016-03-26T12:28:54.994Z,23.21
2016-03-26T12:29:54.997Z,22.33
2016-03-26T12:30:54.999Z,22.47
2016-03-26T12:31:55.003Z,22.24
2016-03-26T12:32:55.004Z,22.66
2016-03-26T12:33:55.008Z,23.2
2016-03-26T12:34:55.010Z,22.57
2016-03-26T12:35:54.997Z,22.6
2016-03-26T12:36:54.999Z,22.4
2016-03-26T12:37:54.988Z,22.5
2016-03-26T12:38:54.990Z,22.26
2016-03-26T12:39:54.993Z,22.2
2016-03-26T12:40:54.995Z,22.18
2016-03-26T12:41:54.998Z,22.21
2016-03-26T12:42:55.001Z,22.78
2016-03-26T12:43:54.988Z,22.72
2016-03-26T12:44:54.990Z,23.03
2016-03-26T12:45:54.993Z,23
2016-03-26T12:46:54.980Z,22.46
2016-03-26T12:47:54.982Z,22.46
2016-03-26T12:48:54.985Z,22.38
2016-03-26T12:49:54.988Z,22.38
2016-03-26T12:50:54.990Z,22.62
2016-03-26T12:51:54.993Z,22.63
2016-03-26T12:52:54.981Z,22.24
2016-03-26T12:53:54.983Z,21.99
2016-03-26T12:54:54.986Z,21.65
2016-03-26T12:55:54.833Z,21.73
2016-03-26T12:56:54.975Z,22.02
2016-03-26T12:57:55.009Z,22.2
2016-03-26T12:58:54.981Z,22.03
2016-03-26T12:59:54.969Z,22.51
2016-03-26T13:00:54.972Z,22.87
2016-03-26T13:01:54.974Z,22.94
2016-03-26T13:02:54.976Z,22.81
2016-03-26T13:03:55.025Z,22.42
2016-03-26T13:04:54.982Z,21.82
2016-03-26T13:05:54.969Z,22.07
2016-03-26T13:06:54.988Z,22.62
2016-03-26T13:07:54.974Z,23.03
2016-03-26T13:08:54.977Z,23.02